createdAt,value
2022-11-12T00:01:21.571Z,6.97
2022-11-12T00:03:49.950Z,10.00
2022-11-12T00:06:18.085Z,7.53
2022-11-12T00:08:46.174Z,7.67
2022-11-12T00:11:14.284Z,8.83
2022-11-12T00:13:42.387Z,7.10
2022-11-12T00:16:12.085Z,9.73
2022-11-12T00:18:40.185Z,8.43
2022-11-12T00:21:08.301Z,8.03
2022-11-12T00:23:36.420Z,8.37
2022-11-12T00:26:04.634Z,7.63
2022-11-12T00:28:37.748Z,7.10
2022-11-12T00:31:13.107Z,9.20
2022-11-12T00:33:42.512Z,8.57
2022-11-12T00:36:11.393Z,7.80
2022-11-12T00:38:39.700Z,7.40
2022-11-12T00:41:08.391Z,7.23
2022-11-12T00:43:36.595Z,7.30
2022-11-12T00:46:05.219Z,6.70
2022-11-12T00:48:34.690Z,6.90
2022-11-12T00:51:05.695Z,7.97
2022-11-12T00:53:34.264Z,8.70
2022-11-12T00:56:04.467Z,9.13
2022-11-12T00:58:33.768Z,9.70
2022-11-12T01:01:10.326Z,8.57
2022-11-12T01:03:41.358Z,7.60
2022-11-12T01:06:13.288Z,8.80
2022-11-12T01:08:42.910Z,8.87
2022-11-12T01:11:13.925Z,8.80
2022-11-12T01:13:45.727Z,8.27
2022-11-12T01:16:16.331Z,8.63
2022-11-12T01:18:45.976Z,8.53
2022-11-12T01:21:15.680Z,9.87
2022-11-12T01:23:44.437Z,7.27
2022-11-12T01:26:16.127Z,7.87
2022-11-12T01:28:44.946Z,7.90
2022-11-12T01:31:16.292Z,9.80
2022-11-12T01:33:49.888Z,8.27
2022-11-12T01:36:20.003Z,9.40
2022-11-12T01:38:49.329Z,7.17
2022-11-12T01:41:21.662Z,6.97
2022-11-12T01:44:05.085Z,7.67
2022-11-12T01:46:36.024Z,7.73
2022-11-12T01:49:13.230Z,7.43
2022-11-12T01:51:47.982Z,7.17
2022-11-12T01:54:21.591Z,6.60
2022-11-12T01:56:52.412Z,7.00
2022-11-12T01:59:30.971Z,7.67
2022-11-12T02:01:59.679Z,10.67
2022-11-12T02:04:30.523Z,7.50
2022-11-12T02:07:00.186Z,8.80
2022-11-12T02:09:29.138Z,7.80
2022-11-12T02:11:57.492Z,9.10
2022-11-12T02:14:24.659Z,10.20
2022-11-12T02:16:53.027Z,9.07
2022-11-12T02:19:21.143Z,7.00
2022-11-12T02:21:50.591Z,6.97
2022-11-12T02:24:36.808Z,8.07
2022-11-12T02:27:07.096Z,6.87
2022-11-12T02:29:35.190Z,8.37
2022-11-12T02:32:03.316Z,7.33
2022-11-12T02:34:31.382Z,7.47
2022-11-12T02:37:00.835Z,9.70
2022-11-12T02:39:28.920Z,7.37
2022-11-12T02:41:57.093Z,6.70
2022-11-12T02:44:25.295Z,8.20
2022-11-12T02:46:53.425Z,7.23
2022-11-12T02:49:21.485Z,9.17
2022-11-12T02:51:49.604Z,6.80
2022-11-12T02:54:19.050Z,8.43
2022-11-12T02:56:47.157Z,7.93
2022-11-12T02:59:15.287Z,7.90
2022-11-12T03:01:43.467Z,6.97
2022-11-12T03:04:11.574Z,6.60
2022-11-12T03:06:39.943Z,9.43
2022-11-12T03:09:08.156Z,7.57
2022-11-12T03:11:37.587Z,6.43
2022-11-12T03:14:06.534Z,6.67
2022-11-12T03:16:34.621Z,7.20
2022-11-12T03:19:03.032Z,5.63
2022-11-12T03:21:31.151Z,7.20
2022-11-12T03:23:59.278Z,6.30
2022-11-12T03:26:30.537Z,5.83
2022-11-12T03:29:02.566Z,6.67
2022-11-12T03:31:30.953Z,6.27
2022-11-12T03:33:59.056Z,5.30
2022-11-12T03:36:27.196Z,5.57
2022-11-12T03:38:55.288Z,5.43
2022-11-12T03:41:23.396Z,7.20
2022-11-12T03:43:51.472Z,6.53
2022-11-12T03:46:20.946Z,8.30
2022-11-12T03:48:49.029Z,8.67
2022-11-12T03:51:18.558Z,6.13
2022-11-12T03:53:46.635Z,5.53
2022-11-12T03:56:14.756Z,6.37
2022-11-12T03:58:42.840Z,5.37
2022-11-12T04:01:10.910Z,6.80
2022-11-12T04:03:40.493Z,5.30
2022-11-12T04:06:32.449Z,5.20
2022-11-12T04:09:00.515Z,7.07
2022-11-12T04:11:28.589Z,6.80
2022-11-12T04:13:55.704Z,7.37
2022-11-12T04:16:42.155Z,6.43
2022-11-12T04:19:43.440Z,8.67
2022-11-12T04:22:12.924Z,6.63
2022-11-12T04:25:01.340Z,7.07
2022-11-12T04:27:31.891Z,5.23
2022-11-12T04:30:18.804Z,8.27
2022-11-12T04:32:54.461Z,5.90
2022-11-12T04:35:26.353Z,6.30
2022-11-12T04:37:55.156Z,7.97
2022-11-12T04:40:43.516Z,8.97
2022-11-12T04:43:30.999Z,6.23
2022-11-12T04:46:00.914Z,7.27
2022-11-12T04:48:29.973Z,7.77
2022-11-12T04:51:03.062Z,7.40
2022-11-12T04:53:32.127Z,7.33
2022-11-12T04:56:00.834Z,7.17
2022-11-12T04:58:29.329Z,6.23
2022-11-12T05:00:57.716Z,8.67
2022-11-12T05:03:25.949Z,8.17
2022-11-12T05:05:53.999Z,7.57
2022-11-12T05:08:23.825Z,8.67
2022-11-12T05:10:52.057Z,7.80
2022-11-12T05:13:20.140Z,6.93
2022-11-12T05:15:48.242Z,7.83
2022-11-12T05:18:16.347Z,7.40
2022-11-12T05:20:44.447Z,8.83
2022-11-12T05:23:12.557Z,7.73
2022-11-12T05:25:42.018Z,7.47
2022-11-12T05:28:10.087Z,7.30
2022-11-12T05:30:38.168Z,7.80
2022-11-12T05:33:06.287Z,10.33
2022-11-12T05:35:34.402Z,8.03
2022-11-12T05:38:02.483Z,7.27
2022-11-12T05:40:30.562Z,9.07
2022-11-12T05:42:59.972Z,8.83
2022-11-12T05:45:28.079Z,8.60
2022-11-12T05:47:56.155Z,11.47
2022-11-12T05:50:24.267Z,8.33
2022-11-12T05:52:52.923Z,9.70
2022-11-12T05:55:21.032Z,10.67
2022-11-12T05:57:49.112Z,8.97
2022-11-12T06:00:19.497Z,9.67
2022-11-12T06:02:47.731Z,9.30
2022-11-12T06:05:16.025Z,9.03
2022-11-12T06:07:44.119Z,9.67
2022-11-12T06:10:17.469Z,10.67
2022-11-12T06:12:48.321Z,12.13
2022-11-12T06:15:17.915Z,8.57
2022-11-12T06:17:46.138Z,10.77
2022-11-12T06:20:14.902Z,11.40
2022-11-12T06:22:43.008Z,9.17
2022-11-12T06:25:11.163Z,11.17
2022-11-12T06:27:39.219Z,9.80
2022-11-12T06:30:10.075Z,12.93
2022-11-12T06:32:39.539Z,11.03
2022-11-12T06:35:08.928Z,11.77
2022-11-12T06:37:37.044Z,10.70
2022-11-12T06:40:06.171Z,12.33
2022-11-12T06:42:34.632Z,10.53
2022-11-12T06:45:02.774Z,11.57
2022-11-12T06:47:30.888Z,9.77
2022-11-12T06:50:00.720Z,11.23
2022-11-12T06:52:28.767Z,10.83
2022-11-12T06:54:56.848Z,10.07
2022-11-12T06:57:24.994Z,11.07
2022-11-12T06:59:53.100Z,11.60
2022-11-12T07:02:21.222Z,14.03
2022-11-12T07:04:49.332Z,9.33
2022-11-12T07:07:18.901Z,12.10
2022-11-12T07:09:47.027Z,12.40
2022-11-12T07:12:15.237Z,13.00
2022-11-12T07:14:43.318Z,11.07
2022-11-12T07:17:11.403Z,10.47
2022-11-12T07:19:39.482Z,12.13
2022-11-12T07:22:07.561Z,12.50
2022-11-12T07:24:37.015Z,9.90
2022-11-12T07:27:05.349Z,12.83
2022-11-12T07:29:46.865Z,12.20
2022-11-12T07:32:16.396Z,9.60
2022-11-12T07:34:44.532Z,11.57
2022-11-12T07:37:12.599Z,11.27
2022-11-12T07:39:42.118Z,9.53
2022-11-12T07:42:10.225Z,10.27
2022-11-12T07:44:38.356Z,9.70
2022-11-12T07:47:06.515Z,9.40
2022-11-12T07:49:34.601Z,9.63
2022-11-12T07:52:02.789Z,10.90
2022-11-12T07:54:30.910Z,10.73
2022-11-12T07:57:00.381Z,9.47
2022-11-12T07:59:28.513Z,12.00
2022-11-12T08:01:56.814Z,10.17
2022-11-12T08:04:24.955Z,10.37
2022-11-12T08:06:53.490Z,10.83
2022-11-12T08:09:21.643Z,11.10
2022-11-12T08:11:49.765Z,10.87
2022-11-12T08:14:19.202Z,8.40
2022-11-12T08:16:47.659Z,8.10
2022-11-12T08:19:15.754Z,9.80
2022-11-12T08:21:44.544Z,13.03
2022-11-12T08:24:12.862Z,10.70
2022-11-12T08:26:40.989Z,14.80
2022-11-12T08:29:09.346Z,8.23
2022-11-12T08:31:38.962Z,9.97
2022-11-12T08:34:15.065Z,12.53
2022-11-12T08:36:45.482Z,9.07
2022-11-12T08:39:13.596Z,9.87
2022-11-12T08:41:41.691Z,7.90
2022-11-12T08:44:09.747Z,7.90
2022-11-12T08:46:39.286Z,8.90
2022-11-12T08:49:07.380Z,7.87
2022-11-12T08:51:35.515Z,8.97
2022-11-12T08:54:03.651Z,8.73
2022-11-12T08:56:31.918Z,9.70
2022-11-12T08:59:03.744Z,9.23
2022-11-12T09:01:34.517Z,8.30
2022-11-12T09:04:04.055Z,8.37
2022-11-12T09:06:32.170Z,7.20
2022-11-12T09:09:00.252Z,7.47
2022-11-12T09:11:28.370Z,7.87
2022-11-12T09:13:56.660Z,9.13
2022-11-12T09:16:25.174Z,9.07
2022-11-12T09:18:53.243Z,9.03
2022-11-12T09:21:24.818Z,9.53
2022-11-12T09:23:53.076Z,8.87
2022-11-12T09:26:21.213Z,7.87
2022-11-12T09:28:49.369Z,9.17
2022-11-12T09:31:17.537Z,8.10
2022-11-12T09:33:45.657Z,8.50
2022-11-12T09:36:13.908Z,8.73
2022-11-12T09:38:43.350Z,8.97
2022-11-12T09:41:34.099Z,9.60
2022-11-12T09:44:06.525Z,7.70
2022-11-12T09:46:46.443Z,7.97
2022-11-12T09:49:22.108Z,10.13
2022-11-12T09:51:56.367Z,8.10
2022-11-12T09:54:29.482Z,9.40
2022-11-12T09:56:57.741Z,7.30
2022-11-12T09:59:33.001Z,8.50
2022-11-12T10:02:24.499Z,7.97
2022-11-12T10:05:16.637Z,7.70
2022-11-12T10:08:03.398Z,7.27
2022-11-12T10:10:46.699Z,7.63
2022-11-12T10:13:37.265Z,7.80
2022-11-12T10:16:42.776Z,8.07
2022-11-12T10:19:42.063Z,9.00
2022-11-12T10:22:34.656Z,7.10
2022-11-12T10:25:17.627Z,8.03
2022-11-12T10:27:49.310Z,6.60
2022-11-12T10:30:21.025Z,7.85
2022-11-12T10:32:51.486Z,9.23
2022-11-12T10:35:24.048Z,8.45
2022-11-12T10:38:00.038Z,8.35
2022-11-12T10:40:34.851Z,7.72
2022-11-12T10:43:07.580Z,8.27
2022-11-12T10:45:36.282Z,7.30
2022-11-12T10:48:04.669Z,7.30
2022-11-12T10:50:41.001Z,7.10
2022-11-12T10:53:13.419Z,7.90
2022-11-12T10:55:59.601Z,7.20
2022-11-12T10:58:29.529Z,9.52
2022-11-12T11:01:04.922Z,9.18
2022-11-12T11:03:37.377Z,7.05
2022-11-12T11:06:08.971Z,7.13
2022-11-12T11:08:41.492Z,6.97
2022-11-12T11:11:29.194Z,7.50
2022-11-12T11:14:25.571Z,7.03
2022-11-12T11:16:57.603Z,7.20
2022-11-12T11:19:34.898Z,6.85
2022-11-12T11:22:24.508Z,7.63
2022-11-12T11:25:11.496Z,11.63
2022-11-12T11:27:57.525Z,9.38
2022-11-12T11:30:27.542Z,9.00
2022-11-12T11:33:26.732Z,8.15
2022-11-12T11:36:08.211Z,8.20
2022-11-12T11:38:57.588Z,9.43
2022-11-12T11:41:55.542Z,7.53
2022-11-12T11:44:40.696Z,6.95
2022-11-12T11:47:34.301Z,6.93
2022-11-12T11:50:29.101Z,6.53
2022-11-12T11:53:16.949Z,6.20
2022-11-12T11:55:57.183Z,6.37
2022-11-12T11:58:55.530Z,6.70
2022-11-12T12:01:36.768Z,4.93
2022-11-12T12:04:43.674Z,5.80
2022-11-12T12:07:29.017Z,7.03
2022-11-12T12:10:09.530Z,7.23
2022-11-12T12:12:56.142Z,6.63
2022-11-12T12:15:53.260Z,6.83
2022-11-12T12:18:37.877Z,6.78
2022-11-12T12:21:16.371Z,6.00
2022-11-12T12:23:53.095Z,6.10
2022-11-12T12:26:28.208Z,6.63
2022-11-12T12:29:03.046Z,6.45
2022-11-12T12:31:38.419Z,6.73
2022-11-12T12:34:19.209Z,6.55
2022-11-12T12:36:55.839Z,5.37
2022-11-12T12:39:30.719Z,8.70
2022-11-12T12:42:06.283Z,7.88
2022-11-12T12:45:01.407Z,8.47
2022-11-12T12:47:37.681Z,9.30
2022-11-12T12:50:13.894Z,6.55
2022-11-12T12:53:04.219Z,6.18
2022-11-12T12:55:42.361Z,5.80
2022-11-12T12:58:27.759Z,5.78
2022-11-12T13:01:04.093Z,6.72
2022-11-12T13:03:56.337Z,6.30
2022-11-12T13:06:29.661Z,6.45
2022-11-12T13:09:07.289Z,6.70
2022-11-12T13:12:13.574Z,6.88
2022-11-12T13:15:41.344Z,5.65
2022-11-12T13:18:16.887Z,6.35
2022-11-12T13:21:12.160Z,5.60
2022-11-12T13:24:04.229Z,5.65
2022-11-12T13:26:56.068Z,5.05
2022-11-12T13:29:47.381Z,6.70
2022-11-12T13:32:41.768Z,4.60
2022-11-12T13:35:29.682Z,5.10
2022-11-12T13:38:04.075Z,6.40
2022-11-12T13:40:46.148Z,4.88
2022-11-12T13:43:34.621Z,5.18
2022-11-12T13:46:28.727Z,6.87
2022-11-12T13:49:01.539Z,6.40
2022-11-12T13:51:41.182Z,6.00
2022-11-12T13:54:34.274Z,8.67
2022-11-12T13:57:17.371Z,6.97
2022-11-12T13:59:47.934Z,6.43
2022-11-12T14:02:24.040Z,5.60
2022-11-12T14:04:53.315Z,7.10
2022-11-12T14:07:44.486Z,5.88
2022-11-12T14:10:33.972Z,6.73
2022-11-12T14:13:27.894Z,10.15
2022-11-12T14:16:23.766Z,17.90
2022-11-12T14:19:18.199Z,17.17
2022-11-12T14:22:01.798Z,13.97
2022-11-12T14:24:33.100Z,11.90
2022-11-12T14:27:02.546Z,7.00
2022-11-12T14:29:35.308Z,7.67
2022-11-12T14:32:09.841Z,9.70
2022-11-12T14:34:37.987Z,10.43
2022-11-12T14:37:06.178Z,18.77
2022-11-12T14:39:35.442Z,13.93
2022-11-12T14:42:05.199Z,10.27
2022-11-12T14:44:37.867Z,9.03
2022-11-12T14:47:06.263Z,7.13
2022-11-12T14:49:44.023Z,7.30
2022-11-12T14:52:19.385Z,7.43
2022-11-12T14:54:54.757Z,9.27
2022-11-12T14:57:28.125Z,11.17
2022-11-12T14:59:56.948Z,9.67
2022-11-12T15:02:52.238Z,10.27
2022-11-12T15:05:23.414Z,12.20
2022-11-12T15:07:58.051Z,11.30
2022-11-12T15:10:33.595Z,11.13
2022-11-12T15:13:08.005Z,9.83
2022-11-12T15:15:39.879Z,9.37
2022-11-12T15:18:17.308Z,10.80
2022-11-12T15:20:45.564Z,11.90
2022-11-12T15:23:19.692Z,11.03
2022-11-12T15:25:59.041Z,14.30
2022-11-12T15:28:29.123Z,16.50
2022-11-12T15:31:17.616Z,12.07
2022-11-12T15:33:45.802Z,10.27
2022-11-12T15:36:20.485Z,12.40
2022-11-12T15:38:51.699Z,13.33
2022-11-12T15:41:30.430Z,10.50
2022-11-12T15:44:00.893Z,10.63
2022-11-12T15:46:29.076Z,12.07
2022-11-12T15:48:57.200Z,15.80
2022-11-12T15:51:25.348Z,13.37
2022-11-12T15:53:53.450Z,16.03
2022-11-12T15:56:22.246Z,15.47
2022-11-12T15:58:50.481Z,14.33
2022-11-12T16:01:20.087Z,16.17
2022-11-12T16:03:48.228Z,15.47
2022-11-12T16:06:16.370Z,14.80
2022-11-12T16:08:44.544Z,15.23
2022-11-12T16:11:28.466Z,15.37
2022-11-12T16:13:56.655Z,15.97
2022-11-12T16:16:26.199Z,16.60
2022-11-12T16:18:54.322Z,18.90
2022-11-12T16:21:22.452Z,20.53
2022-11-12T16:23:50.715Z,18.17
2022-11-12T16:26:26.132Z,19.43
2022-11-12T16:28:54.243Z,22.63
2022-11-12T16:31:22.801Z,22.83
2022-11-12T16:33:52.321Z,21.60
2022-11-12T16:36:20.751Z,21.53
2022-11-12T16:38:48.932Z,19.93
2022-11-12T16:41:17.065Z,24.43
2022-11-12T16:43:45.180Z,19.97
2022-11-12T16:46:26.045Z,21.87
2022-11-12T16:48:55.812Z,21.77
2022-11-12T16:51:25.457Z,22.77
2022-11-12T16:53:53.562Z,15.90
2022-11-12T16:56:23.931Z,18.27
2022-11-12T16:58:52.085Z,18.63
2022-11-12T17:01:26.903Z,18.97
2022-11-12T17:03:57.896Z,19.87
2022-11-12T17:06:34.862Z,17.70
2022-11-12T17:09:03.218Z,20.40
2022-11-12T17:11:31.641Z,23.27
2022-11-12T17:14:01.105Z,20.33
2022-11-12T17:16:30.127Z,21.20
2022-11-12T17:19:02.328Z,20.47
2022-11-12T17:21:31.243Z,19.33
2022-11-12T17:23:59.376Z,22.83
2022-11-12T17:26:27.520Z,22.23
2022-11-12T17:29:01.072Z,19.73
2022-11-12T17:31:30.615Z,18.50
2022-11-12T17:34:00.132Z,20.47
2022-11-12T17:36:29.206Z,18.97
2022-11-12T17:38:58.551Z,18.53
2022-11-12T17:41:28.917Z,22.33
2022-11-12T17:43:58.129Z,24.93
2022-11-12T17:46:27.054Z,21.20
2022-11-12T17:48:56.532Z,22.00
2022-11-12T17:51:29.463Z,22.27
2022-11-12T17:53:57.616Z,26.20
2022-11-12T17:56:26.033Z,21.83
2022-11-12T17:58:54.653Z,24.03
2022-11-12T18:01:25.891Z,23.30
2022-11-12T18:03:57.048Z,24.80
2022-11-12T18:06:28.863Z,22.17
2022-11-12T18:08:59.563Z,21.73
2022-11-12T18:11:29.847Z,22.97
2022-11-12T18:13:58.296Z,21.13
2022-11-12T18:16:28.818Z,19.23
2022-11-12T18:18:58.530Z,20.00
2022-11-12T18:21:28.893Z,21.33
2022-11-12T18:23:57.009Z,21.07
2022-11-12T18:26:25.293Z,20.73
2022-11-12T18:28:53.969Z,20.90
2022-11-12T18:31:23.954Z,20.47
2022-11-12T18:33:52.706Z,23.27
2022-11-12T18:36:24.185Z,20.83
2022-11-12T18:38:55.368Z,19.70
2022-11-12T18:41:26.938Z,17.80
2022-11-12T18:43:55.860Z,17.20
2022-11-12T18:46:24.764Z,18.07
2022-11-12T18:48:52.883Z,17.03
2022-11-12T18:51:21.280Z,19.83
2022-11-12T18:53:49.572Z,19.90
2022-11-12T18:56:21.885Z,20.17
2022-11-12T18:58:50.367Z,18.27
2022-11-12T19:01:23.015Z,18.07
2022-11-12T19:03:56.320Z,17.80
2022-11-12T19:06:25.654Z,19.60
2022-11-12T19:08:59.891Z,18.70
2022-11-12T19:11:29.459Z,20.80
2022-11-12T19:13:57.702Z,21.17
2022-11-12T19:16:25.963Z,18.77
2022-11-12T19:18:54.241Z,18.97
2022-11-12T19:21:24.874Z,20.83
2022-11-12T19:23:55.943Z,20.80
2022-11-12T19:26:24.889Z,19.57
2022-11-12T19:28:55.123Z,21.17
2022-11-12T19:31:25.813Z,20.70
2022-11-12T19:33:53.924Z,20.77
2022-11-12T19:36:24.818Z,19.40
2022-11-12T19:38:56.706Z,20.20
2022-11-12T19:41:25.903Z,18.77
2022-11-12T19:43:55.795Z,19.37
2022-11-12T19:46:25.215Z,18.07
2022-11-12T19:48:53.374Z,18.87
2022-11-12T19:51:21.554Z,20.93
2022-11-12T19:53:50.886Z,21.33
2022-11-12T19:56:21.450Z,19.97
2022-11-12T19:58:53.489Z,18.57
2022-11-12T20:01:23.161Z,19.20
2022-11-12T20:03:51.529Z,22.53
2022-11-12T20:06:23.312Z,22.27
2022-11-12T20:08:51.420Z,22.37
2022-11-12T20:11:19.822Z,21.37
2022-11-12T20:13:47.955Z,20.87
2022-11-12T20:16:24.990Z,24.63
2022-11-12T20:18:56.814Z,23.90
2022-11-12T20:21:26.586Z,24.20
2022-11-12T20:23:54.693Z,23.13
2022-11-12T20:26:23.699Z,23.13
2022-11-12T20:28:51.851Z,23.97
2022-11-12T20:31:21.645Z,22.70
2022-11-12T20:33:51.326Z,21.57
2022-11-12T20:36:23.037Z,21.63
2022-11-12T20:38:53.323Z,20.90
2022-11-12T20:41:23.720Z,21.70
2022-11-12T20:43:54.457Z,22.47
2022-11-12T20:46:22.888Z,22.37
2022-11-12T20:48:51.110Z,21.17
2022-11-12T20:51:24.964Z,23.00
2022-11-12T20:53:59.388Z,19.97
2022-11-12T20:56:30.356Z,21.33
2022-11-12T20:58:59.713Z,22.10
2022-11-12T21:01:30.386Z,22.27
2022-11-12T21:03:59.327Z,25.27
2022-11-12T21:06:30.088Z,23.00
2022-11-12T21:09:00.621Z,25.20
2022-11-12T21:11:28.806Z,26.00
2022-11-12T21:13:56.984Z,24.10
2022-11-12T21:16:25.409Z,25.50
2022-11-12T21:18:53.503Z,25.13
2022-11-12T21:21:21.857Z,30.53
2022-11-12T21:23:53.875Z,25.17
2022-11-12T21:26:23.792Z,29.10
2022-11-12T21:28:53.920Z,25.40
2022-11-12T21:31:24.767Z,25.43
2022-11-12T21:33:55.305Z,25.67
2022-11-12T21:36:23.997Z,25.20
2022-11-12T21:38:53.488Z,25.80
2022-11-12T21:41:24.889Z,24.40
2022-11-12T21:43:53.524Z,25.23
2022-11-12T21:46:24.679Z,25.80
2022-11-12T21:48:55.748Z,25.50
2022-11-12T21:51:26.614Z,25.60
2022-11-12T21:53:58.398Z,26.77
2022-11-12T21:56:27.664Z,25.60
2022-11-12T21:58:59.382Z,25.83
2022-11-12T22:01:30.232Z,26.57
2022-11-12T22:03:59.866Z,26.93
2022-11-12T22:06:33.934Z,28.57
2022-11-12T22:09:03.628Z,29.53
2022-11-12T22:11:31.980Z,29.57
2022-11-12T22:14:00.144Z,28.00
2022-11-12T22:16:30.509Z,27.57
2022-11-12T22:19:00.448Z,24.13
2022-11-12T22:21:34.256Z,26.80
2022-11-12T22:24:10.542Z,26.70
2022-11-12T22:26:38.825Z,24.07
2022-11-12T22:29:07.134Z,27.43
2022-11-12T22:31:35.273Z,25.07
2022-11-12T22:34:04.266Z,24.27
2022-11-12T22:36:35.818Z,24.63
2022-11-12T22:39:07.328Z,24.53
2022-11-12T22:41:35.446Z,23.00
2022-11-12T22:44:04.661Z,24.93
2022-11-12T22:46:35.984Z,24.90
2022-11-12T22:49:05.882Z,25.43
2022-11-12T22:51:35.446Z,24.40
2022-11-12T22:54:06.578Z,24.23
2022-11-12T22:56:36.752Z,24.07
2022-11-12T22:59:05.081Z,24.00
2022-11-12T23:01:36.179Z,27.67
2022-11-12T23:04:07.266Z,24.53
2022-11-12T23:06:35.824Z,24.77
2022-11-12T23:09:05.849Z,27.07
2022-11-12T23:11:37.514Z,24.53
2022-11-12T23:14:05.659Z,27.17
2022-11-12T23:16:35.228Z,28.57
2022-11-12T23:19:03.766Z,27.47
2022-11-12T23:21:32.271Z,24.23
2022-11-12T23:24:00.893Z,23.70
2022-11-12T23:26:32.107Z,25.20
2022-11-12T23:29:02.365Z,22.93
2022-11-12T23:31:32.326Z,24.10
2022-11-12T23:34:01.312Z,24.57
2022-11-12T23:36:30.482Z,25.33
2022-11-12T23:38:59.938Z,23.00
2022-11-12T23:41:28.930Z,24.50
2022-11-12T23:43:59.019Z,28.57
2022-11-12T23:46:28.532Z,22.80
2022-11-12T23:48:57.026Z,24.83
2022-11-12T23:51:25.880Z,24.33
2022-11-12T23:53:54.039Z,22.57
2022-11-12T23:56:22.182Z,27.90
2022-11-12T23:58:50.296Z,25.03
